Time;durP1;ratioP1;P1;durP2;ratioP2;P2;SDS_P1;SDS_P2;PMS_P1;PMS_P2;Temp;Humidity;BMP_temperature;BMP_pressure;BME280_temperature;BME280_humidity;BME280_pressure;Samples;Min_cycle;Max_cycle;Signal;HPM_P1;HPM_P2
2022/04/01 00:00:10;;;;;;;14.90;5.10;;;27.30;86.20;;;;;;5145495;27;20042;-53
2022/04/01 00:02:38;;;;;;;8.68;5.07;;;27.30;86.20;;;;;;5146123;27;20087;-53
2022/04/01 00:05:06;;;;;;;13.70;4.70;;;27.30;86.10;;;;;;5145867;27;20023;-55
2022/04/01 00:07:34;;;;;;;11.40;5.18;;;27.30;85.90;;;;;;5146229;27;20019;-58
2022/04/01 00:10:00;;;;;;;14.88;5.20;;;27.30;85.80;;;;;;5146146;27;20023;-52
2022/04/01 00:12:27;;;;;;;9.73;4.32;;;27.30;85.70;;;;;;5145926;27;20291;-57
2022/04/01 00:14:54;;;;;;;7.97;4.90;;;27.30;85.60;;;;;;5146021;27;20219;-53
2022/04/01 00:17:21;;;;;;;13.68;4.53;;;27.30;85.40;;;;;;5146321;27;20019;-54
2022/04/01 00:19:48;;;;;;;11.35;4.00;;;27.30;85.20;;;;;;5145785;27;20019;-53
2022/04/01 00:22:14;;;;;;;15.13;4.35;;;27.30;85.00;;;;;;5146034;27;20088;-54
2022/04/01 00:24:41;;;;;;;9.15;4.20;;;27.30;84.80;;;;;;5145838;27;20023;-60
2022/04/01 00:27:08;;;;;;;9.75;3.90;;;27.30;84.70;;;;;;5145870;27;20073;-55
2022/04/01 00:29:35;;;;;;;10.88;3.80;;;27.30;85.00;;;;;;5145566;27;20315;-55
2022/04/01 00:32:01;;;;;;;10.55;4.18;;;27.30;84.40;;;;;;5145319;27;20034;-52
2022/04/01 00:34:30;;;;;;;8.85;4.32;;;27.30;84.20;;;;;;5145577;27;20018;-56
2022/04/01 00:36:59;;;;;;;8.32;4.15;;;27.30;84.10;;;;;;5145707;27;20031;-56
2022/04/01 00:39:29;;;;;;;8.77;3.75;;;27.30;83.90;;;;;;5145604;27;20019;-47
2022/04/01 00:41:57;;;;;;;9.15;3.72;;;27.20;83.60;;;;;;5145523;27;20027;-54
2022/04/01 00:44:27;;;;;;;8.40;3.30;;;27.20;83.60;;;;;;5145546;27;20207;-51
2022/04/01 00:46:57;;;;;;;8.45;3.50;;;27.20;83.40;;;;;;5145528;27;20025;-54
2022/04/01 00:49:26;;;;;;;11.70;3.40;;;27.20;83.30;;;;;;5145098;27;20109;-55
2022/04/01 00:51:55;;;;;;;9.43;4.22;;;27.20;83.20;;;;;;5145497;27;20019;-53
2022/04/01 00:54:23;;;;;;;7.38;3.63;;;27.20;82.90;;;;;;5145367;27;20027;-53
2022/04/01 00:56:50;;;;;;;7.93;3.60;;;27.20;82.70;;;;;;5145310;27;20027;-53
2022/04/01 00:59:16;;;;;;;8.80;4.25;;;27.10;82.60;;;;;;5145138;27;20043;-52
2022/04/01 01:01:43;;;;;;;9.65;3.47;;;27.10;82.40;;;;;;5145244;27;20014;-52
2022/04/01 01:04:15;;;;;;;7.97;3.75;;;27.10;82.30;;;;;;5145099;27;20103;-54
2022/04/01 01:06:47;;;;;;;10.05;4.22;;;27.10;82.10;;;;;;5145156;27;20054;-53
2022/04/01 01:09:14;;;;;;;;;;;27.10;82.10;;;;;;5145468;27;20244;-54
2022/04/01 01:11:42;;;;;;;8.48;3.67;;;27.10;81.80;;;;;;5144075;27;19915;-47
2022/04/01 01:14:11;;;;;;;9.27;3.85;;;27.10;81.70;;;;;;5145036;27;20023;-54
2022/04/01 01:16:42;;;;;;;11.02;3.80;;;27.10;81.50;;;;;;5145217;27;20241;-53
2022/04/01 01:19:11;;;;;;;9.40;3.83;;;27.10;81.50;;;;;;5145018;27;20019;-54
2022/04/01 01:21:39;;;;;;;8.25;3.80;;;27.10;81.60;;;;;;5144962;27;20318;-57
2022/04/01 01:24:11;;;;;;;7.47;3.70;;;27.10;81.50;;;;;;5144858;28;20030;-49
2022/04/01 01:26:38;;;;;;;8.15;4.25;;;27.10;81.20;;;;;;5144916;28;20048;-58
2022/04/01 01:29:06;;;;;;;8.07;3.83;;;27.10;81.80;;;;;;5144902;28;20027;-54
2022/04/01 01:31:33;;;;;;;8.90;4.32;;;27.10;81.00;;;;;;5144981;28;20038;-55
2022/04/01 01:34:01;;;;;;;10.35;4.53;;;27.10;80.80;;;;;;5144928;28;20068;-58
2022/04/01 01:36:30;;;;;;;13.20;3.80;;;27.00;80.70;;;;;;5144663;28;20019;-55
2022/04/01 01:38:57;;;;;;;7.25;4.00;;;27.00;80.40;;;;;;5144467;28;20087;-56
2022/04/01 01:41:25;;;;;;;7.93;4.05;;;27.00;80.60;;;;;;5144581;28;20039;-51
2022/04/01 01:43:53;;;;;;;7.43;4.03;;;27.00;80.80;;;;;;5144645;28;20022;-51
2022/04/01 01:46:19;;;;;;;10.13;4.57;;;27.00;80.90;;;;;;5144537;28;20027;-57
2022/04/01 01:48:46;;;;;;;7.35;4.05;;;27.00;80.70;;;;;;5144571;28;20043;-51
2022/04/01 01:56:44;;;;;;;9.13;4.50;;;27.00;81.40;;;;;;5144614;28;20038;-55
2022/04/01 01:59:11;;;;;;;11.55;4.78;;;26.90;81.70;;;;;;5144613;28;20027;-53
2022/04/01 02:01:42;;;;;;;10.77;5.00;;;27.00;82.00;;;;;;5144486;28;20054;-52
2022/04/01 02:04:10;;;;;;;9.67;5.27;;;27.00;82.30;;;;;;5144361;28;20026;-51
2022/04/01 02:06:37;;;;;;;11.80;5.10;;;27.00;82.30;;;;;;5144550;28;20023;-54
2022/04/01 02:09:03;;;;;;;14.52;5.40;;;26.90;82.30;;;;;;5144669;28;20028;-52
2022/04/01 02:11:30;;;;;;;14.93;10.32;;;26.90;82.30;;;;;;5144324;28;20019;-61
2022/04/01 02:13:57;;;;;;;22.65;19.38;;;26.90;82.10;;;;;;5144535;28;20027;-57
2022/04/01 02:16:24;;;;;;;48.75;43.50;;;26.90;82.10;;;;;;5144523;28;20038;-53
2022/04/01 02:18:51;;;;;;;49.90;44.45;;;26.90;82.20;;;;;;5144321;28;20314;-52
2022/04/01 02:21:18;;;;;;;34.13;26.83;;;26.90;82.20;;;;;;5144163;28;20027;-56
2022/04/01 02:23:47;;;;;;;19.63;15.55;;;26.80;82.10;;;;;;5146901;27;20023;-53
2022/04/01 02:26:14;;;;;;;16.67;12.85;;;26.80;82.20;;;;;;5148027;27;20015;-49
2022/04/01 02:28:42;;;;;;;16.10;11.52;;;26.80;82.00;;;;;;5148214;27;20182;-55
2022/04/01 02:31:11;;;;;;;12.73;9.25;;;26.80;82.30;;;;;;5148079;27;20023;-52
2022/04/01 02:33:38;;;;;;;13.32;8.48;;;26.80;82.30;;;;;;5147699;27;20019;-53
2022/04/01 02:36:10;;;;;;;12.55;8.73;;;26.70;82.90;;;;;;5148103;27;20027;-57
2022/04/01 02:38:39;;;;;;;12.43;7.50;;;26.70;82.60;;;;;;5148363;27;20113;-51
2022/04/01 02:41:07;;;;;;;11.55;6.70;;;26.70;82.50;;;;;;5147668;27;20094;-55
2022/04/01 02:43:35;;;;;;;12.07;5.57;;;26.70;82.70;;;;;;5148476;27;20019;-54
2022/04/01 02:46:05;;;;;;;9.48;4.53;;;26.70;82.60;;;;;;5147830;27;20030;-51
2022/04/01 02:48:32;;;;;;;10.10;4.97;;;26.70;82.60;;;;;;5147999;27;20303;-52
2022/04/01 02:50:59;;;;;;;9.10;4.70;;;26.60;83.10;;;;;;5147932;27;20027;-50
2022/04/01 02:53:26;;;;;;;6.22;4.45;;;26.60;82.50;;;;;;5148134;27;20015;-53
2022/04/01 02:55:52;;;;;;;7.80;4.05;;;26.60;82.40;;;;;;5147637;27;20273;-51
2022/04/01 02:58:20;;;;;;;10.13;3.95;;;26.70;82.50;;;;;;5148033;27;20300;-56
2022/04/01 03:00:47;;;;;;;9.05;3.63;;;26.60;82.50;;;;;;5147717;27;20034;-52
2022/04/01 03:03:14;;;;;;;6.38;3.80;;;26.60;82.30;;;;;;5147887;27;20054;-55
2022/04/01 03:05:45;;;;;;;12.10;3.47;;;26.60;82.30;;;;;;5147436;27;20026;-49
2022/04/01 03:08:12;;;;;;;11.52;3.75;;;26.60;82.20;;;;;;5147691;27;20015;-53
2022/04/01 03:10:40;;;;;;;8.52;3.90;;;26.60;82.20;;;;;;5147246;27;20231;-55
2022/04/01 03:13:07;;;;;;;9.90;3.25;;;26.60;82.20;;;;;;5147705;27;20034;-56
2022/04/01 03:15:34;;;;;;;9.93;3.40;;;26.70;82.00;;;;;;5147093;27;20376;-53
2022/04/01 03:18:01;;;;;;;7.57;2.95;;;26.60;82.00;;;;;;5146992;27;20039;-58
2022/04/01 03:20:29;;;;;;;11.80;3.38;;;26.60;81.90;;;;;;5147002;27;20249;-55
2022/04/01 03:22:57;;;;;;;5.78;3.30;;;26.60;81.90;;;;;;5147320;27;20296;-56
2022/04/01 03:25:24;;;;;;;7.07;3.30;;;26.60;81.90;;;;;;5147296;27;20260;-53
2022/04/01 03:27:51;;;;;;;8.13;3.60;;;26.60;81.80;;;;;;5147535;27;20030;-54
2022/04/01 03:30:18;;;;;;;9.60;3.25;;;26.60;81.60;;;;;;5146744;27;20220;-54
2022/04/01 03:32:48;;;;;;;8.48;3.47;;;26.60;81.60;;;;;;5147160;27;20176;-52
2022/04/01 03:35:17;;;;;;;7.72;3.55;;;26.60;81.70;;;;;;5146170;27;20045;-51
2022/04/01 03:37:45;;;;;;;9.82;4.10;;;26.60;81.60;;;;;;5146912;27;20022;-51
2022/04/01 03:40:16;;;;;;;6.88;3.60;;;26.60;81.80;;;;;;5146935;27;20060;-53
2022/04/01 03:42:47;;;;;;;10.32;4.07;;;26.60;81.70;;;;;;5146862;27;20046;-48
2022/04/01 03:45:17;;;;;;;8.77;4.15;;;26.60;81.70;;;;;;5146513;27;20041;-52
2022/04/01 03:48:18;;;;;;;8.45;4.32;;;26.60;81.70;;;;;;5146875;27;20019;-53
2022/04/01 03:50:49;;;;;;;11.85;4.90;;;26.60;81.50;;;;;;5090448;27;20051;-56
2022/04/01 03:53:18;;;;;;;11.40;4.68;;;26.60;81.70;;;;;;5146987;27;20020;-56
2022/04/01 03:55:47;;;;;;;10.82;4.60;;;26.60;81.80;;;;;;5146314;27;20022;-54
2022/04/01 03:58:15;;;;;;;10.30;5.45;;;26.50;81.80;;;;;;5146858;27;20325;-57
2022/04/01 04:00:42;;;;;;;9.88;5.38;;;26.60;81.70;;;;;;5146201;27;20321;-53
2022/04/01 04:03:10;;;;;;;9.88;5.30;;;26.60;81.50;;;;;;5146526;27;20082;-54
2022/04/01 04:05:38;;;;;;;9.93;5.03;;;26.60;81.50;;;;;;5146167;27;20027;-50
2022/04/01 04:08:06;;;;;;;8.63;5.13;;;26.60;81.50;;;;;;5146527;27;20015;-55
2022/04/01 04:10:35;;;;;;;8.27;6.43;;;26.60;81.40;;;;;;5145978;27;20136;-56
2022/04/01 04:13:06;;;;;;;13.00;7.00;;;26.60;81.40;;;;;;5146443;27;20026;-55
2022/04/01 04:16:19;;;;;;;8.55;6.43;;;26.50;81.40;;;;;;5146160;27;20046;-51
2022/04/01 04:18:56;;;;;;;14.65;7.97;;;26.60;81.10;;;;;;5121668;27;20054;-56
2022/04/01 04:21:31;;;;;;;10.15;7.40;;;26.60;81.40;;;;;;5145851;27;20019;-60
2022/04/01 04:24:02;;;;;;;11.75;7.03;;;26.60;81.30;;;;;;5145741;27;20029;-58
2022/04/01 04:26:37;;;;;;;10.15;6.55;;;26.60;81.50;;;;;;5145915;27;20019;-57
2022/04/01 04:29:16;;;;;;;8.93;7.40;;;26.60;81.40;;;;;;5146127;27;20094;-53
2022/04/01 04:31:56;;;;;;;12.15;6.88;;;26.50;81.30;;;;;;5145800;27;20302;-53
2022/04/01 04:34:27;;;;;;;9.85;6.88;;;26.60;81.10;;;;;;5145801;27;20035;-54
2022/04/01 04:36:57;;;;;;;9.68;7.47;;;26.60;81.00;;;;;;5145687;27;20088;-52
2022/04/01 04:39:31;;;;;;;11.20;7.35;;;26.60;80.80;;;;;;5145501;27;20053;-54
2022/04/01 04:41:58;;;;;;;11.32;7.50;;;26.60;80.80;;;;;;5145553;27;20023;-55
2022/04/01 04:44:28;;;;;;;9.85;7.45;;;26.60;81.00;;;;;;5145466;27;20030;-61
2022/04/01 04:46:57;;;;;;;10.88;7.70;;;26.60;81.00;;;;;;5145308;27;20015;-57
2022/04/01 04:49:29;;;;;;;12.98;7.15;;;26.60;81.00;;;;;;5145187;27;20058;-51
2022/04/01 04:51:59;;;;;;;;;;;26.60;81.00;;;;;;5145991;27;20128;-52
2022/04/01 04:54:26;;;;;;;12.32;7.20;;;26.60;80.90;;;;;;5145480;27;19972;-52
2022/04/01 04:56:54;;;;;;;11.50;7.78;;;26.50;80.70;;;;;;5145344;27;20038;-54
2022/04/01 04:59:22;;;;;;;13.00;7.80;;;26.60;80.90;;;;;;5145268;27;20019;-52
2022/04/01 05:02:07;;;;;;;11.93;8.35;;;26.60;80.80;;;;;;5145080;27;20046;-52
2022/04/01 05:05:00;;;;;;;10.95;7.18;;;26.50;80.60;;;;;;5145151;27;20082;-54
2022/04/01 05:07:38;;;;;;;;;;;26.60;80.70;;;;;;5107204;27;20311;-53
2022/04/01 05:10:27;;;;;;;13.85;7.95;;;26.60;80.90;;;;;;5145398;27;19907;-53
2022/04/01 05:13:02;;;;;;;12.23;8.32;;;26.60;81.10;;;;;;5132176;27;20027;-51
2022/04/01 05:15:36;;;;;;;17.45;8.27;;;26.50;81.10;;;;;;5145327;27;20031;-55
2022/04/01 05:18:22;;;;;;;11.88;8.10;;;26.60;81.20;;;;;;5145420;27;20084;-52
2022/04/01 05:21:04;;;;;;;12.77;7.90;;;26.60;81.30;;;;;;5144902;27;20331;-53
2022/04/01 05:23:49;;;;;;;12.40;8.32;;;26.60;81.70;;;;;;5145563;27;20030;-55
2022/04/01 05:26:23;;;;;;;13.27;8.52;;;26.50;81.00;;;;;;5144785;27;20211;-55
2022/04/01 05:28:56;;;;;;;10.70;8.27;;;26.50;81.20;;;;;;5145006;28;20042;-52
2022/04/01 05:31:46;;;;;;;12.25;8.95;;;26.50;81.50;;;;;;5144804;28;20041;-60
2022/04/01 05:34:32;;;;;;;12.87;8.50;;;26.50;81.40;;;;;;5144879;28;20027;-58
2022/04/01 05:36:59;;;;;;;16.23;8.77;;;26.50;81.30;;;;;;5145187;28;20070;-54
2022/04/01 05:39:29;;;;;;;12.48;8.60;;;26.50;81.60;;;;;;5144804;28;20034;-56
2022/04/01 05:41:56;;;;;;;11.40;8.35;;;26.50;81.60;;;;;;5144698;28;20094;-59
2022/04/01 05:44:26;;;;;;;16.35;8.35;;;26.50;81.50;;;;;;5144855;28;20023;-55
2022/04/01 05:46:54;;;;;;;13.57;8.73;;;26.50;81.60;;;;;;5144654;28;20060;-53
2022/04/01 05:49:22;;;;;;;13.70;8.73;;;26.50;81.60;;;;;;5144404;28;20053;-52
2022/04/01 05:51:49;;;;;;;11.52;8.70;;;26.50;81.70;;;;;;5144707;28;20218;-51
2022/04/01 05:54:19;;;;;;;15.25;8.85;;;26.50;81.70;;;;;;5144935;28;20027;-51
2022/04/01 05:56:47;;;;;;;14.13;8.18;;;26.50;81.50;;;;;;5144552;27;20181;-53
2022/04/01 05:59:17;;;;;;;13.13;8.90;;;26.50;81.50;;;;;;5148017;27;20019;-54
2022/04/01 06:02:03;;;;;;;11.27;8.98;;;26.50;81.70;;;;;;5148653;27;20046;-52
2022/04/01 06:04:48;;;;;;;12.65;9.05;;;26.50;81.90;;;;;;5148653;27;20019;-54
2022/04/01 06:07:54;;;;;;;12.55;9.13;;;26.50;82.10;;;;;;5148699;27;20015;-52
2022/04/01 06:10:31;;;;;;;12.65;8.63;;;26.50;82.10;;;;;;5118285;27;20054;-52
2022/04/01 06:13:13;;;;;;;12.23;9.00;;;26.50;82.00;;;;;;5148948;27;20343;-52
2022/04/01 06:15:43;;;;;;;13.00;8.98;;;26.50;81.90;;;;;;5148546;27;20023;-53
2022/04/01 06:18:34;;;;;;;12.93;8.73;;;26.50;82.10;;;;;;5148905;27;20042;-53
2022/04/01 06:21:03;;;;;;;12.43;9.52;;;26.40;82.00;;;;;;5148190;27;20023;-51
2022/04/01 06:23:57;;;;;;;12.23;8.57;;;26.50;82.00;;;;;;5148744;27;20072;-54
2022/04/01 06:26:28;;;;;;;12.40;9.10;;;26.50;82.00;;;;;;5148353;27;20027;-59
2022/04/01 06:29:18;;;;;;;12.18;9.00;;;26.40;82.10;;;;;;5148189;27;20026;-55
2022/04/01 06:31:57;;;;;;;13.13;9.07;;;26.40;82.20;;;;;;5148156;27;20019;-54
2022/04/01 06:34:36;;;;;;;15.20;9.85;;;26.40;82.20;;;;;;5148080;27;20090;-52
2022/04/01 06:37:07;;;;;;;13.70;10.07;;;26.50;81.90;;;;;;5148315;27;20034;-52
2022/04/01 06:39:56;;;;;;;13.98;9.30;;;26.40;82.10;;;;;;5147937;27;20044;-52
2022/04/01 06:42:26;;;;;;;12.75;9.60;;;26.40;82.20;;;;;;5148410;27;20027;-55
2022/04/01 06:44:53;;;;;;;11.05;9.68;;;26.40;82.90;;;;;;5148002;27;20076;-54
2022/04/01 06:47:20;;;;;;;14.15;10.25;;;26.40;82.40;;;;;;5147930;27;20058;-54
2022/04/01 06:49:46;;;;;;;14.68;10.85;;;26.40;82.40;;;;;;5147826;27;20092;-54
2022/04/01 06:52:14;;;;;;;16.35;11.95;;;26.40;82.40;;;;;;5148001;27;20326;-56
2022/04/01 06:54:41;;;;;;;14.85;12.55;;;26.40;82.00;;;;;;5147523;27;20027;-58
2022/04/01 06:57:07;;;;;;;19.58;13.10;;;26.40;81.90;;;;;;5147821;27;20060;-58
2022/04/01 06:59:34;;;;;;;20.38;13.40;;;26.40;81.90;;;;;;5147672;27;20027;-52
2022/04/01 07:02:01;;;;;;;21.83;14.20;;;26.40;81.90;;;;;;5147457;27;20096;-51
2022/04/01 07:04:28;;;;;;;20.58;15.00;;;26.40;81.90;;;;;;5147570;27;20019;-54
2022/04/01 07:06:59;;;;;;;20.27;14.98;;;26.40;81.70;;;;;;5147561;27;20023;-52
2022/04/01 07:09:26;;;;;;;20.23;14.73;;;26.40;81.70;;;;;;5147426;27;20311;-49
2022/04/01 07:11:53;;;;;;;22.67;15.13;;;26.40;81.80;;;;;;5147529;27;20207;-52
2022/04/01 07:14:20;;;;;;;20.42;15.02;;;26.40;81.90;;;;;;5147294;27;20267;-52
2022/04/01 07:16:46;;;;;;;21.50;14.80;;;26.40;82.50;;;;;;5147245;27;20037;-54
2022/04/01 07:19:13;;;;;;;17.83;15.93;;;26.40;82.00;;;;;;5147298;27;20043;-53
2022/04/01 07:21:39;;;;;;;19.10;15.77;;;26.40;82.10;;;;;;5147091;27;20248;-51
2022/04/01 07:24:06;;;;;;;19.70;16.17;;;26.40;82.30;;;;;;5146963;27;20026;-47
2022/04/01 07:26:33;;;;;;;22.15;16.75;;;26.40;82.00;;;;;;5147013;27;20079;-50
2022/04/01 07:29:01;;;;;;;19.52;17.02;;;26.40;82.00;;;;;;5147152;27;20023;-52
2022/04/01 07:34:16;;;;;;;24.33;17.40;;;26.40;82.50;;;;;;5147071;27;20041;-54
2022/04/01 07:36:42;;;;;;;21.50;17.40;;;26.40;82.10;;;;;;5146727;27;20030;-56
2022/04/01 07:39:09;;;;;;;21.65;17.25;;;26.40;81.70;;;;;;5146981;27;20019;-55
2022/04/01 07:41:36;;;;;;;23.00;18.27;;;26.40;82.10;;;;;;5146739;27;20047;-53
2022/04/01 07:44:03;;;;;;;25.65;18.15;;;26.40;82.00;;;;;;5146593;27;20051;-53
2022/04/01 07:46:31;;;;;;;23.27;19.02;;;26.40;82.20;;;;;;5146748;27;20015;-60
2022/04/01 07:48:57;;;;;;;21.35;19.15;;;26.50;82.10;;;;;;5146439;27;20110;-55
2022/04/01 07:51:24;;;;;;;25.88;19.55;;;26.40;81.80;;;;;;5146364;27;20200;-59
2022/04/01 07:53:50;;;;;;;23.33;19.48;;;26.40;81.80;;;;;;5146813;27;20033;-53
2022/04/01 07:56:17;;;;;;;23.70;18.83;;;26.40;81.80;;;;;;5146302;27;20067;-50
2022/04/01 07:58:44;;;;;;;23.02;19.33;;;26.40;81.80;;;;;;5146391;27;20023;-52
2022/04/01 08:01:11;;;;;;;23.90;19.85;;;26.40;81.70;;;;;;5146565;27;20023;-52
2022/04/01 08:03:41;;;;;;;28.25;21.25;;;26.40;81.40;;;;;;5146770;27;20015;-53
2022/04/01 08:06:08;;;;;;;23.15;19.85;;;26.40;81.50;;;;;;5146089;27;20015;-51
2022/04/01 08:08:34;;;;;;;23.40;20.23;;;26.40;81.60;;;;;;5146699;27;20026;-52
2022/04/01 08:11:01;;;;;;;24.48;20.13;;;26.50;81.70;;;;;;5146235;27;20019;-52
2022/04/01 08:13:27;;;;;;;23.10;19.70;;;26.50;81.70;;;;;;5146439;27;20050;-53
2022/04/01 08:15:54;;;;;;;21.40;19.17;;;26.40;81.70;;;;;;5146261;27;20303;-59
2022/04/01 08:18:21;;;;;;;23.02;19.83;;;26.50;81.70;;;;;;5146056;27;20065;-51
2022/04/01 08:20:47;;;;;;;23.60;19.70;;;26.40;81.70;;;;;;5145240;27;20098;-56
2022/04/01 08:23:14;;;;;;;29.15;20.83;;;26.40;81.80;;;;;;5146381;27;20046;-57
2022/04/01 08:25:40;;;;;;;27.92;20.63;;;26.40;81.70;;;;;;5146090;27;20019;-55
2022/04/01 08:28:08;;;;;;;23.60;19.73;;;26.40;82.00;;;;;;5146410;27;20023;-55
2022/04/01 08:30:35;;;;;;;25.45;20.23;;;26.50;81.90;;;;;;5145822;27;20539;-53
2022/04/01 08:33:02;;;;;;;28.27;20.80;;;26.40;81.90;;;;;;5146130;27;20071;-52
2022/04/01 08:35:28;;;;;;;28.73;21.17;;;26.40;82.00;;;;;;5145787;27;20372;-52
2022/04/01 08:37:57;;;;;;;27.00;21.05;;;26.40;82.00;;;;;;5145992;27;20034;-53
2022/04/01 08:40:25;;;;;;;25.23;20.23;;;26.40;81.90;;;;;;5145495;27;20019;-50
2022/04/01 08:42:52;;;;;;;26.10;20.00;;;26.40;82.00;;;;;;5145969;27;20042;-49
2022/04/01 08:45:20;;;;;;;24.42;19.77;;;26.40;82.10;;;;;;5145513;27;20189;-50
2022/04/01 08:47:48;;;;;;;30.33;20.38;;;26.40;82.00;;;;;;5145991;27;20019;-52
2022/04/01 08:50:15;;;;;;;25.63;20.23;;;26.40;82.00;;;;;;5145194;27;20110;-55
2022/04/01 08:52:42;;;;;;;26.83;19.20;;;26.40;82.20;;;;;;5145689;27;20091;-57
2022/04/01 08:55:10;;;;;;;24.85;20.10;;;26.40;82.20;;;;;;5145578;27;20019;-54
2022/04/01 08:57:42;;;;;;;25.38;19.52;;;26.40;82.10;;;;;;5145488;27;20061;-56
2022/04/01 09:00:15;;;;;;;25.42;20.13;;;26.40;82.10;;;;;;5145345;27;20096;-53
2022/04/01 09:02:52;;;;;;;32.08;21.13;;;26.40;82.00;;;;;;5145127;27;20023;-50
2022/04/01 09:05:20;;;;;;;26.73;19.95;;;26.40;82.00;;;;;;5145169;27;20090;-54
2022/04/01 09:07:47;;;;;;;32.85;20.35;;;26.40;82.20;;;;;;5145431;27;20027;-54
2022/04/01 09:10:14;;;;;;;27.60;20.42;;;26.40;82.20;;;;;;5145304;27;20027;-56
2022/04/01 09:12:53;;;;;;;27.90;20.05;;;26.40;82.10;;;;;;5145366;27;20112;-54
2022/04/01 09:15:19;;;;;;;28.13;20.23;;;26.40;82.00;;;;;;5145103;27;20023;-57
2022/04/01 09:17:48;;;;;;;30.13;21.23;;;26.40;82.20;;;;;;5145145;27;20045;-55
2022/04/01 09:20:16;;;;;;;26.70;19.25;;;26.40;82.10;;;;;;5145242;27;20374;-53
2022/04/01 09:22:45;;;;;;;26.83;19.85;;;26.40;82.30;;;;;;5145283;27;20030;-55
2022/04/01 09:25:14;;;;;;;24.08;19.95;;;26.40;82.60;;;;;;5144813;27;20049;-54
2022/04/01 09:27:46;;;;;;;24.25;19.00;;;26.40;82.70;;;;;;5145329;28;20300;-56
2022/04/01 09:30:17;;;;;;;27.23;19.55;;;26.40;82.90;;;;;;5144910;28;20023;-55
2022/04/01 09:32:48;;;;;;;25.13;20.23;;;26.40;82.70;;;;;;5146135;27;20072;-54
2022/04/01 09:35:16;;;;;;;23.58;19.55;;;26.40;82.80;;;;;;5149122;27;20033;-54
2022/04/01 09:37:48;;;;;;;27.23;20.85;;;26.40;82.70;;;;;;5149197;27;20086;-51
2022/04/01 09:40:19;;;;;;;25.88;20.17;;;26.40;82.30;;;;;;5149234;27;20023;-53
2022/04/01 09:42:54;;;;;;;24.15;20.38;;;26.40;82.30;;;;;;5149451;27;20047;-53
2022/04/01 09:45:38;;;;;;;26.83;21.25;;;26.40;82.60;;;;;;5149097;27;20027;-54
2022/04/01 09:48:09;;;;;;;24.80;20.23;;;26.40;82.60;;;;;;5148904;27;20027;-54
2022/04/01 09:50:38;;;;;;;25.55;20.27;;;26.40;82.80;;;;;;5149027;27;20088;-52
2022/04/01 09:53:19;;;;;;;28.13;20.67;;;26.40;82.70;;;;;;5149352;27;20038;-56
2022/04/01 09:55:48;;;;;;;25.00;20.60;;;26.40;82.60;;;;;;5148862;27;20023;-53
2022/04/01 09:58:18;;;;;;;26.25;20.13;;;26.40;82.70;;;;;;5149277;27;20019;-51
2022/04/01 10:00:46;;;;;;;24.60;20.25;;;26.40;82.90;;;;;;5148628;27;20015;-56
2022/04/01 10:03:15;;;;;;;26.20;20.83;;;26.40;83.10;;;;;;5149108;27;20219;-52
2022/04/01 10:05:42;;;;;;;25.38;20.77;;;26.40;83.20;;;;;;5148659;27;20019;-53
2022/04/01 10:08:11;;;;;;;26.52;21.23;;;26.40;83.40;;;;;;5148875;27;20023;-53
2022/04/01 10:10:39;;;;;;;24.27;21.70;;;26.40;83.40;;;;;;5148866;27;20027;-53
2022/04/01 10:13:17;;;;;;;29.10;21.80;;;26.40;83.20;;;;;;5149036;27;20064;-56
2022/04/01 10:15:45;;;;;;;24.33;20.23;;;26.40;83.10;;;;;;5148411;27;20031;-52
2022/04/01 10:18:12;;;;;;;27.17;21.45;;;26.40;82.90;;;;;;5149006;27;20030;-60
2022/04/01 10:20:39;;;;;;;26.33;21.45;;;26.40;82.80;;;;;;5148240;27;20051;-55
2022/04/01 10:23:09;;;;;;;24.52;21.90;;;26.40;82.80;;;;;;5148486;27;20019;-52
2022/04/01 10:25:48;;;;;;;25.85;22.33;;;26.40;82.70;;;;;;5148512;27;20360;-54
2022/04/01 10:28:17;;;;;;;24.42;21.85;;;26.40;82.60;;;;;;5148497;27;20327;-52
2022/04/01 10:30:52;;;;;;;28.85;22.88;;;26.40;82.50;;;;;;5148177;27;20023;-55
2022/04/01 10:33:24;;;;;;;25.13;22.63;;;26.40;82.30;;;;;;5148485;27;20023;-52
2022/04/01 10:35:52;;;;;;;25.98;23.25;;;26.40;82.30;;;;;;5148063;27;20023;-52
2022/04/01 10:38:21;;;;;;;27.40;23.77;;;26.40;82.20;;;;;;5148503;27;20026;-51
2022/04/01 10:40:51;;;;;;;27.13;24.13;;;26.40;82.20;;;;;;5147679;27;20023;-53
2022/04/01 10:43:20;;;;;;;27.13;23.85;;;26.40;82.10;;;;;;5147995;27;20019;-54
2022/04/01 10:46:17;;;;;;;26.75;23.75;;;26.40;82.20;;;;;;5148023;27;20356;-52
2022/04/01 10:52:02;;;;;;;26.95;23.73;;;26.40;81.80;;;;;;5147917;27;20047;-55
2022/04/01 10:54:29;;;;;;;27.45;22.83;;;26.40;82.00;;;;;;5147514;27;20121;-53
2022/04/01 10:57:08;;;;;;;44.35;24.73;;;26.40;81.70;;;;;;5148005;27;20246;-56
2022/04/01 10:59:45;;;;;;;35.22;24.38;;;26.40;81.80;;;;;;5147504;27;20060;-56
2022/04/01 11:02:19;;;;;;;26.33;22.92;;;26.40;81.50;;;;;;5147823;27;20046;-53
2022/04/01 11:04:47;;;;;;;30.70;24.38;;;26.40;81.40;;;;;;5147479;27;20029;-56
2022/04/01 11:07:33;;;;;;;31.42;24.15;;;26.40;81.50;;;;;;5147557;27;20081;-53
2022/04/01 11:10:00;;;;;;;28.10;24.58;;;26.40;81.60;;;;;;5147340;27;20050;-53
2022/04/01 11:12:34;;;;;;;31.35;24.50;;;26.40;81.50;;;;;;5147395;27;20019;-55
2022/04/01 11:15:07;;;;;;;33.53;25.45;;;26.50;81.40;;;;;;5147252;27;20023;-56
2022/04/01 11:17:40;;;;;;;32.10;25.95;;;26.50;81.50;;;;;;5147436;27;20027;-56
2022/04/01 11:20:10;;;;;;;28.65;25.55;;;26.50;80.80;;;;;;5147056;27;20027;-54
2022/04/01 11:22:59;;;;;;;42.05;27.60;;;26.40;80.80;;;;;;5147576;27;20016;-51
2022/04/01 11:25:31;;;;;;;32.42;25.35;;;26.50;80.80;;;;;;5147145;27;20334;-54
2022/04/01 11:27:57;;;;;;;30.53;25.50;;;26.50;80.90;;;;;;5147453;27;20072;-58
2022/04/01 11:30:31;;;;;;;31.30;26.67;;;26.40;81.00;;;;;;5146799;27;20315;-54
2022/04/01 11:33:06;;;;;;;29.63;25.90;;;26.50;81.00;;;;;;5147045;27;20019;-53
2022/04/01 11:35:36;;;;;;;32.80;27.30;;;26.50;80.90;;;;;;5146814;27;20112;-50
2022/04/01 11:38:04;;;;;;;32.78;26.70;;;26.50;80.80;;;;;;5147239;27;20044;-52
2022/04/01 11:40:33;;;;;;;31.25;25.90;;;26.50;81.00;;;;;;5146665;27;20034;-52
2022/04/01 11:43:06;;;;;;;28.67;25.70;;;26.50;81.00;;;;;;5147112;27;20019;-55
2022/04/01 11:45:37;;;;;;;29.25;26.27;;;26.50;81.00;;;;;;5146673;27;20023;-54
2022/04/01 11:48:28;;;;;;;30.33;27.23;;;26.50;81.50;;;;;;5146992;27;20023;-55
2022/04/01 11:51:04;;;;;;;31.25;27.52;;;26.60;80.70;;;;;;5132440;27;20083;-54
2022/04/01 11:53:52;;;;;;;31.25;27.83;;;26.50;80.90;;;;;;5146870;27;20038;-54
2022/04/01 11:56:20;;;;;;;32.03;28.60;;;26.50;80.80;;;;;;5145498;27;20090;-53
2022/04/01 11:58:47;;;;;;;30.98;27.70;;;26.60;80.90;;;;;;5146353;27;20019;-52
2022/04/01 12:01:19;;;;;;;32.47;29.08;;;26.60;81.00;;;;;;5146174;27;20019;-52
2022/04/01 12:03:45;;;;;;;32.50;29.17;;;26.60;81.00;;;;;;5146437;27;20019;-55
2022/04/01 12:09:05;;;;;;;31.25;28.25;;;26.60;81.10;;;;;;5146567;27;20026;-51
2022/04/01 12:11:42;;;;;;;34.35;29.63;;;26.60;81.10;;;;;;5146013;27;20030;-51
2022/04/01 12:14:10;;;;;;;31.50;28.33;;;26.60;81.10;;;;;;5146425;27;20023;-54
2022/04/01 12:16:44;;;;;;;31.70;28.40;;;26.60;81.20;;;;;;5146044;27;20031;-53
2022/04/01 12:19:17;;;;;;;32.30;28.98;;;26.60;81.10;;;;;;5146141;27;20023;-55
2022/04/01 12:21:50;;;;;;;31.35;28.05;;;26.60;81.20;;;;;;5146089;27;20033;-52
2022/04/01 12:24:18;;;;;;;31.42;27.73;;;26.60;81.40;;;;;;5145966;27;20023;-53
2022/04/01 12:26:47;;;;;;;31.88;28.08;;;26.60;81.30;;;;;;5145876;27;20019;-52
2022/04/01 12:29:25;;;;;;;30.45;27.40;;;26.60;81.40;;;;;;5145699;27;20086;-54
2022/04/01 12:31:57;;;;;;;30.83;27.58;;;26.60;81.40;;;;;;5146063;27;20071;-56
2022/04/01 12:34:24;;;;;;;;;;;26.60;81.70;;;;;;5146108;27;20019;-57
2022/04/01 12:37:02;;;;;;;30.20;26.90;;;26.60;81.50;;;;;;5145881;27;20199;-55
2022/04/01 12:39:34;;;;;;;32.80;28.50;;;26.60;81.90;;;;;;5145651;27;20086;-53
2022/04/01 12:42:06;;;;;;;34.65;29.10;;;26.60;82.00;;;;;;5145704;27;20034;-54
2022/04/01 12:44:36;;;;;;;30.98;27.88;;;26.60;81.90;;;;;;5145524;27;20236;-55
2022/04/01 12:47:05;;;;;;;32.28;28.33;;;26.60;81.80;;;;;;5145688;27;20354;-50
2022/04/01 12:49:34;;;;;;;33.05;28.23;;;26.60;81.90;;;;;;5145223;27;20121;-54
2022/04/01 12:52:07;;;;;;;30.63;27.48;;;26.60;81.80;;;;;;5145523;27;20088;-52
2022/04/01 12:54:39;;;;;;;30.15;27.13;;;26.60;81.90;;;;;;5145160;27;20069;-54
2022/04/01 12:57:13;;;;;;;31.70;28.35;;;26.60;82.00;;;;;;5145420;27;20034;-54
2022/04/01 12:59:42;;;;;;;30.88;27.67;;;26.60;81.80;;;;;;5145569;27;20208;-53
2022/04/01 13:02:14;;;;;;;28.85;26.17;;;26.60;81.90;;;;;;5145483;27;20031;-52
2022/04/01 13:04:43;;;;;;;30.10;27.20;;;26.60;81.60;;;;;;5145344;27;20023;-60
2022/04/01 13:07:12;;;;;;;30.42;27.33;;;26.60;81.70;;;;;;5145213;27;20038;-53